sensor_id;sensor_type;location;lat;lon;timestamp;P1;durP1;ratioP1;P2;durP2;ratioP2
2175;SDS011;1094;49.902;10.876;2022-10-16T00:00:28;3.20;;;2.83;;
2175;SDS011;1094;49.902;10.876;2022-10-16T00:02:54;4.93;;;3.30;;
2175;SDS011;1094;49.902;10.876;2022-10-16T00:05:20;5.23;;;3.17;;
2175;SDS011;1094;49.902;10.876;2022-10-16T00:07:46;5.17;;;3.13;;
2175;SDS011;1094;49.902;10.876;2022-10-16T00:10:12;3.30;;;3.00;;
2175;SDS011;1094;49.902;10.876;2022-10-16T00:12:38;3.90;;;3.13;;
2175;SDS011;1094;49.902;10.876;2022-10-16T00:15:04;3.73;;;3.10;;
2175;SDS011;1094;49.902;10.876;2022-10-16T00:17:31;4.73;;;3.17;;
2175;SDS011;1094;49.902;10.876;2022-10-16T00:19:57;5.93;;;3.10;;
2175;SDS011;1094;49.902;10.876;2022-10-16T00:22:23;3.40;;;3.10;;
2175;SDS011;1094;49.902;10.876;2022-10-16T00:24:49;3.40;;;3.10;;
2175;SDS011;1094;49.902;10.876;2022-10-16T00:27:15;5.57;;;3.43;;
2175;SDS011;1094;49.902;10.876;2022-10-16T00:29:41;5.67;;;3.50;;
2175;SDS011;1094;49.902;10.876;2022-10-16T00:32:07;5.10;;;2.80;;
2175;SDS011;1094;49.902;10.876;2022-10-16T00:34:33;6.83;;;3.50;;
2175;SDS011;1094;49.902;10.876;2022-10-16T00:36:59;5.90;;;3.30;;
2175;SDS011;1094;49.902;10.876;2022-10-16T00:39:25;3.83;;;3.43;;
2175;SDS011;1094;49.902;10.876;2022-10-16T00:41:51;4.00;;;3.70;;
2175;SDS011;1094;49.902;10.876;2022-10-16T00:47:02;5.33;;;3.07;;
2175;SDS011;1094;49.902;10.876;2022-10-16T00:49:28;5.83;;;3.30;;
2175;SDS011;1094;49.902;10.876;2022-10-16T00:51:54;3.33;;;2.60;;
2175;SDS011;1094;49.902;10.876;2022-10-16T00:54:24;4.73;;;3.33;;
2175;SDS011;1094;49.902;10.876;2022-10-16T00:56:51;3.80;;;2.90;;
2175;SDS011;1094;49.902;10.876;2022-10-16T00:59:19;3.87;;;3.47;;
2175;SDS011;1094;49.902;10.876;2022-10-16T01:01:46;5.53;;;3.97;;
2175;SDS011;1094;49.902;10.876;2022-10-16T01:04:12;3.73;;;2.93;;
2175;SDS011;1094;49.902;10.876;2022-10-16T01:12:12;3.43;;;3.13;;
2175;SDS011;1094;49.902;10.876;2022-10-16T01:14:43;4.23;;;2.87;;
2175;SDS011;1094;49.902;10.876;2022-10-16T01:17:12;7.00;;;3.80;;
2175;SDS011;1094;49.902;10.876;2022-10-16T01:19:44;4.00;;;2.60;;
2175;SDS011;1094;49.902;10.876;2022-10-16T01:22:16;3.40;;;3.07;;
2175;SDS011;1094;49.902;10.876;2022-10-16T01:24:45;5.67;;;4.07;;
2175;SDS011;1094;49.902;10.876;2022-10-16T01:27:14;6.60;;;3.57;;
2175;SDS011;1094;49.902;10.876;2022-10-16T01:29:44;10.57;;;5.20;;
2175;SDS011;1094;49.902;10.876;2022-10-16T01:32:14;7.23;;;4.40;;
2175;SDS011;1094;49.902;10.876;2022-10-16T01:34:43;5.97;;;3.80;;
2175;SDS011;1094;49.902;10.876;2022-10-16T01:37:13;5.50;;;4.60;;
2175;SDS011;1094;49.902;10.876;2022-10-16T01:39:41;5.73;;;3.13;;
2175;SDS011;1094;49.902;10.876;2022-10-16T01:42:09;3.23;;;2.73;;
2175;SDS011;1094;49.902;10.876;2022-10-16T01:44:37;2.50;;;2.27;;
2175;SDS011;1094;49.902;10.876;2022-10-16T01:47:04;3.17;;;2.87;;
2175;SDS011;1094;49.902;10.876;2022-10-16T01:49:31;3.70;;;2.50;;
2175;SDS011;1094;49.902;10.876;2022-10-16T01:51:59;2.70;;;2.37;;
2175;SDS011;1094;49.902;10.876;2022-10-16T01:54:25;3.60;;;2.30;;
2175;SDS011;1094;49.902;10.876;2022-10-16T01:56:53;4.57;;;2.73;;
2175;SDS011;1094;49.902;10.876;2022-10-16T01:59:21;2.03;;;1.93;;
2175;SDS011;1094;49.902;10.876;2022-10-16T02:01:50;6.43;;;2.27;;
2175;SDS011;1094;49.902;10.876;2022-10-16T02:06:46;4.40;;;2.33;;
2175;SDS011;1094;49.902;10.876;2022-10-16T02:09:12;3.73;;;2.37;;
2175;SDS011;1094;49.902;10.876;2022-10-16T02:11:41;3.33;;;2.37;;
2175;SDS011;1094;49.902;10.876;2022-10-16T02:14:07;5.73;;;2.93;;
2175;SDS011;1094;49.902;10.876;2022-10-16T02:16:44;3.27;;;2.50;;
2175;SDS011;1094;49.902;10.876;2022-10-16T02:19:11;2.93;;;2.53;;
2175;SDS011;1094;49.902;10.876;2022-10-16T02:24:30;2.53;;;2.33;;
2175;SDS011;1094;49.902;10.876;2022-10-16T02:26:55;2.43;;;2.20;;
2175;SDS011;1094;49.902;10.876;2022-10-16T02:29:24;3.30;;;2.57;;
2175;SDS011;1094;49.902;10.876;2022-10-16T02:31:52;4.17;;;2.43;;
2175;SDS011;1094;49.902;10.876;2022-10-16T02:34:19;4.40;;;2.40;;
2175;SDS011;1094;49.902;10.876;2022-10-16T02:36:47;4.50;;;2.67;;
2175;SDS011;1094;49.902;10.876;2022-10-16T02:39:14;4.90;;;2.37;;
2175;SDS011;1094;49.902;10.876;2022-10-16T02:41:40;4.17;;;1.93;;
2175;SDS011;1094;49.902;10.876;2022-10-16T02:44:06;3.80;;;2.53;;
2175;SDS011;1094;49.902;10.876;2022-10-16T02:46:32;4.93;;;2.83;;
2175;SDS011;1094;49.902;10.876;2022-10-16T02:48:58;3.10;;;2.67;;
2175;SDS011;1094;49.902;10.876;2022-10-16T02:51:24;4.43;;;2.80;;
2175;SDS011;1094;49.902;10.876;2022-10-16T02:53:50;2.30;;;2.10;;
2175;SDS011;1094;49.902;10.876;2022-10-16T02:56:16;3.73;;;2.20;;
2175;SDS011;1094;49.902;10.876;2022-10-16T02:58:42;2.93;;;2.67;;
2175;SDS011;1094;49.902;10.876;2022-10-16T03:01:08;4.70;;;2.30;;
2175;SDS011;1094;49.902;10.876;2022-10-16T03:03:34;4.17;;;3.10;;
2175;SDS011;1094;49.902;10.876;2022-10-16T03:06:00;2.33;;;2.13;;
2175;SDS011;1094;49.902;10.876;2022-10-16T03:08:26;4.50;;;2.30;;
2175;SDS011;1094;49.902;10.876;2022-10-16T03:10:52;3.07;;;2.30;;
2175;SDS011;1094;49.902;10.876;2022-10-16T03:13:18;3.30;;;2.37;;
2175;SDS011;1094;49.902;10.876;2022-10-16T03:15:45;4.97;;;2.20;;
2175;SDS011;1094;49.902;10.876;2022-10-16T03:18:11;4.90;;;2.00;;
2175;SDS011;1094;49.902;10.876;2022-10-16T03:20:37;2.43;;;2.23;;
2175;SDS011;1094;49.902;10.876;2022-10-16T03:23:03;4.00;;;2.20;;
2175;SDS011;1094;49.902;10.876;2022-10-16T03:25:29;3.77;;;2.03;;
2175;SDS011;1094;49.902;10.876;2022-10-16T03:27:55;3.90;;;2.33;;
2175;SDS011;1094;49.902;10.876;2022-10-16T03:30:21;2.57;;;2.13;;
2175;SDS011;1094;49.902;10.876;2022-10-16T03:32:47;3.47;;;2.27;;
2175;SDS011;1094;49.902;10.876;2022-10-16T03:35:13;3.77;;;2.40;;
2175;SDS011;1094;49.902;10.876;2022-10-16T03:37:39;3.40;;;2.07;;
2175;SDS011;1094;49.902;10.876;2022-10-16T03:40:05;2.23;;;2.03;;
2175;SDS011;1094;49.902;10.876;2022-10-16T03:42:31;8.70;;;3.00;;
2175;SDS011;1094;49.902;10.876;2022-10-16T03:44:57;3.77;;;2.27;;
2175;SDS011;1094;49.902;10.876;2022-10-16T03:47:23;6.90;;;2.57;;
2175;SDS011;1094;49.902;10.876;2022-10-16T03:49:49;5.40;;;2.10;;
2175;SDS011;1094;49.902;10.876;2022-10-16T03:52:15;2.67;;;2.47;;
2175;SDS011;1094;49.902;10.876;2022-10-16T03:54:41;3.70;;;2.50;;
2175;SDS011;1094;49.902;10.876;2022-10-16T03:57:07;7.83;;;2.37;;
2175;SDS011;1094;49.902;10.876;2022-10-16T03:59:33;4.23;;;3.43;;
2175;SDS011;1094;49.902;10.876;2022-10-16T04:01:59;4.67;;;2.60;;
2175;SDS011;1094;49.902;10.876;2022-10-16T04:04:25;2.40;;;2.20;;
2175;SDS011;1094;49.902;10.876;2022-10-16T04:06:51;2.93;;;2.20;;
2175;SDS011;1094;49.902;10.876;2022-10-16T04:09:17;6.47;;;2.40;;
2175;SDS011;1094;49.902;10.876;2022-10-16T04:11:43;5.30;;;2.70;;
2175;SDS011;1094;49.902;10.876;2022-10-16T04:14:09;4.70;;;2.33;;
2175;SDS011;1094;49.902;10.876;2022-10-16T04:16:35;11.77;;;2.60;;
2175;SDS011;1094;49.902;10.876;2022-10-16T04:19:01;4.17;;;2.93;;
2175;SDS011;1094;49.902;10.876;2022-10-16T04:21:27;8.07;;;2.50;;
2175;SDS011;1094;49.902;10.876;2022-10-16T04:23:53;4.57;;;2.33;;
2175;SDS011;1094;49.902;10.876;2022-10-16T04:26:19;2.70;;;2.40;;
2175;SDS011;1094;49.902;10.876;2022-10-16T04:28:44;4.23;;;2.43;;
2175;SDS011;1094;49.902;10.876;2022-10-16T04:31:10;3.80;;;2.23;;
2175;SDS011;1094;49.902;10.876;2022-10-16T04:33:36;3.40;;;2.20;;
2175;SDS011;1094;49.902;10.876;2022-10-16T04:36:03;9.23;;;2.67;;
2175;SDS011;1094;49.902;10.876;2022-10-16T04:38:29;4.63;;;2.50;;
2175;SDS011;1094;49.902;10.876;2022-10-16T04:40:55;2.83;;;2.63;;
2175;SDS011;1094;49.902;10.876;2022-10-16T04:43:21;2.80;;;2.50;;
2175;SDS011;1094;49.902;10.876;2022-10-16T04:45:47;5.07;;;2.60;;
2175;SDS011;1094;49.902;10.876;2022-10-16T04:48:15;4.07;;;2.90;;
2175;SDS011;1094;49.902;10.876;2022-10-16T04:50:41;3.50;;;2.80;;
2175;SDS011;1094;49.902;10.876;2022-10-16T04:53:07;4.20;;;3.20;;
2175;SDS011;1094;49.902;10.876;2022-10-16T04:55:33;4.00;;;3.00;;
2175;SDS011;1094;49.902;10.876;2022-10-16T04:57:59;4.93;;;2.80;;
2175;SDS011;1094;49.902;10.876;2022-10-16T05:00:25;2.70;;;2.33;;
2175;SDS011;1094;49.902;10.876;2022-10-16T05:02:51;2.27;;;2.07;;
2175;SDS011;1094;49.902;10.876;2022-10-16T05:05:17;8.30;;;2.90;;
2175;SDS011;1094;49.902;10.876;2022-10-16T05:07:44;5.27;;;2.93;;
2175;SDS011;1094;49.902;10.876;2022-10-16T05:10:10;3.90;;;2.60;;
2175;SDS011;1094;49.902;10.876;2022-10-16T05:12:36;2.57;;;2.37;;
2175;SDS011;1094;49.902;10.876;2022-10-16T05:15:02;4.90;;;3.03;;
2175;SDS011;1094;49.902;10.876;2022-10-16T05:17:28;3.57;;;3.10;;
2175;SDS011;1094;49.902;10.876;2022-10-16T05:19:54;4.83;;;2.70;;
2175;SDS011;1094;49.902;10.876;2022-10-16T05:22:20;5.07;;;2.70;;
2175;SDS011;1094;49.902;10.876;2022-10-16T05:24:46;11.60;;;4.50;;
2175;SDS011;1094;49.902;10.876;2022-10-16T05:27:13;3.37;;;3.07;;
2175;SDS011;1094;49.902;10.876;2022-10-16T05:29:44;10.70;;;3.17;;
2175;SDS011;1094;49.902;10.876;2022-10-16T05:32:10;3.43;;;2.93;;
2175;SDS011;1094;49.902;10.876;2022-10-16T05:34:36;4.53;;;2.83;;
2175;SDS011;1094;49.902;10.876;2022-10-16T05:37:02;3.30;;;2.63;;
2175;SDS011;1094;49.902;10.876;2022-10-16T05:39:28;3.53;;;2.60;;
2175;SDS011;1094;49.902;10.876;2022-10-16T05:41:54;3.33;;;2.97;;
2175;SDS011;1094;49.902;10.876;2022-10-16T05:44:20;3.30;;;3.00;;
2175;SDS011;1094;49.902;10.876;2022-10-16T05:46:46;2.90;;;2.60;;
2175;SDS011;1094;49.902;10.876;2022-10-16T05:49:12;5.67;;;3.03;;
2175;SDS011;1094;49.902;10.876;2022-10-16T05:51:38;5.17;;;2.73;;
2175;SDS011;1094;49.902;10.876;2022-10-16T05:54:04;3.07;;;2.77;;
2175;SDS011;1094;49.902;10.876;2022-10-16T05:56:30;6.43;;;2.90;;
2175;SDS011;1094;49.902;10.876;2022-10-16T05:58:56;5.20;;;3.13;;
2175;SDS011;1094;49.902;10.876;2022-10-16T06:01:22;3.20;;;2.90;;
2175;SDS011;1094;49.902;10.876;2022-10-16T06:03:49;5.30;;;2.43;;
2175;SDS011;1094;49.902;10.876;2022-10-16T06:06:17;3.47;;;2.97;;
2175;SDS011;1094;49.902;10.876;2022-10-16T06:08:45;6.17;;;3.13;;
2175;SDS011;1094;49.902;10.876;2022-10-16T06:11:12;8.40;;;3.50;;
2175;SDS011;1094;49.902;10.876;2022-10-16T06:13:38;3.50;;;3.20;;
2175;SDS011;1094;49.902;10.876;2022-10-16T06:16:06;4.77;;;2.87;;
2175;SDS011;1094;49.902;10.876;2022-10-16T06:18:32;3.67;;;3.17;;
2175;SDS011;1094;49.902;10.876;2022-10-16T06:20:58;4.10;;;2.80;;
2175;SDS011;1094;49.902;10.876;2022-10-16T06:23:24;4.17;;;2.80;;
2175;SDS011;1094;49.902;10.876;2022-10-16T06:25:51;6.10;;;2.73;;
2175;SDS011;1094;49.902;10.876;2022-10-16T06:28:16;3.20;;;2.90;;
2175;SDS011;1094;49.902;10.876;2022-10-16T06:30:42;4.20;;;2.70;;
2175;SDS011;1094;49.902;10.876;2022-10-16T06:33:09;4.20;;;3.10;;
2175;SDS011;1094;49.902;10.876;2022-10-16T06:35:35;3.60;;;3.30;;
2175;SDS011;1094;49.902;10.876;2022-10-16T06:38:01;4.13;;;3.13;;
2175;SDS011;1094;49.902;10.876;2022-10-16T06:40:27;3.63;;;3.10;;
2175;SDS011;1094;49.902;10.876;2022-10-16T06:42:56;4.10;;;3.33;;
2175;SDS011;1094;49.902;10.876;2022-10-16T06:45:22;4.87;;;3.33;;
2175;SDS011;1094;49.902;10.876;2022-10-16T06:47:48;3.37;;;3.07;;
2175;SDS011;1094;49.902;10.876;2022-10-16T06:50:14;3.57;;;2.83;;
2175;SDS011;1094;49.902;10.876;2022-10-16T06:52:40;3.03;;;2.73;;
2175;SDS011;1094;49.902;10.876;2022-10-16T06:55:06;6.03;;;3.10;;
2175;SDS011;1094;49.902;10.876;2022-10-16T06:57:32;3.90;;;3.03;;
2175;SDS011;1094;49.902;10.876;2022-10-16T06:59:58;4.63;;;2.77;;
2175;SDS011;1094;49.902;10.876;2022-10-16T07:02:24;4.60;;;3.23;;
2175;SDS011;1094;49.902;10.876;2022-10-16T07:04:50;3.70;;;3.10;;
2175;SDS011;1094;49.902;10.876;2022-10-16T07:07:16;5.70;;;2.50;;
2175;SDS011;1094;49.902;10.876;2022-10-16T07:09:42;4.10;;;3.50;;
2175;SDS011;1094;49.902;10.876;2022-10-16T07:12:08;5.00;;;3.07;;
2175;SDS011;1094;49.902;10.876;2022-10-16T07:14:34;4.00;;;2.77;;
2175;SDS011;1094;49.902;10.876;2022-10-16T07:17:00;3.93;;;2.47;;
2175;SDS011;1094;49.902;10.876;2022-10-16T07:19:26;3.60;;;2.80;;
2175;SDS011;1094;49.902;10.876;2022-10-16T07:21:52;3.70;;;2.80;;
2175;SDS011;1094;49.902;10.876;2022-10-16T07:24:17;2.70;;;2.50;;
2175;SDS011;1094;49.902;10.876;2022-10-16T07:26:44;3.87;;;3.17;;
2175;SDS011;1094;49.902;10.876;2022-10-16T07:29:12;3.30;;;2.80;;
2175;SDS011;1094;49.902;10.876;2022-10-16T07:31:38;2.93;;;2.63;;
2175;SDS011;1094;49.902;10.876;2022-10-16T07:34:04;5.20;;;3.10;;
2175;SDS011;1094;49.902;10.876;2022-10-16T07:36:30;3.20;;;2.90;;
2175;SDS011;1094;49.902;10.876;2022-10-16T07:38:56;5.60;;;2.67;;
2175;SDS011;1094;49.902;10.876;2022-10-16T07:41:22;3.33;;;2.83;;
2175;SDS011;1094;49.902;10.876;2022-10-16T07:43:49;3.00;;;2.80;;
2175;SDS011;1094;49.902;10.876;2022-10-16T07:46:15;3.63;;;2.70;;
2175;SDS011;1094;49.902;10.876;2022-10-16T07:48:42;5.17;;;2.77;;
2175;SDS011;1094;49.902;10.876;2022-10-16T07:51:12;5.07;;;2.90;;
2175;SDS011;1094;49.902;10.876;2022-10-16T07:53:38;5.30;;;2.40;;
2175;SDS011;1094;49.902;10.876;2022-10-16T07:56:05;6.40;;;3.10;;
2175;SDS011;1094;49.902;10.876;2022-10-16T07:58:31;3.67;;;2.80;;
2175;SDS011;1094;49.902;10.876;2022-10-16T08:00:57;3.37;;;3.03;;
2175;SDS011;1094;49.902;10.876;2022-10-16T08:03:24;4.43;;;2.77;;
2175;SDS011;1094;49.902;10.876;2022-10-16T08:05:50;4.90;;;2.90;;
2175;SDS011;1094;49.902;10.876;2022-10-16T08:08:17;3.27;;;2.97;;
2175;SDS011;1094;49.902;10.876;2022-10-16T08:10:43;4.30;;;3.70;;
2175;SDS011;1094;49.902;10.876;2022-10-16T08:13:09;3.70;;;3.20;;
2175;SDS011;1094;49.902;10.876;2022-10-16T08:15:35;5.77;;;2.90;;
2175;SDS011;1094;49.902;10.876;2022-10-16T08:18:02;8.83;;;2.80;;
2175;SDS011;1094;49.902;10.876;2022-10-16T08:20:28;3.80;;;3.07;;
2175;SDS011;1094;49.902;10.876;2022-10-16T08:22:54;5.97;;;2.90;;
2175;SDS011;1094;49.902;10.876;2022-10-16T08:25:21;8.90;;;3.53;;
2175;SDS011;1094;49.902;10.876;2022-10-16T08:27:47;3.10;;;2.77;;
2175;SDS011;1094;49.902;10.876;2022-10-16T08:30:13;2.80;;;2.40;;
2175;SDS011;1094;49.902;10.876;2022-10-16T08:32:39;2.90;;;2.60;;
2175;SDS011;1094;49.902;10.876;2022-10-16T08:35:07;3.43;;;2.47;;
2175;SDS011;1094;49.902;10.876;2022-10-16T08:37:34;2.70;;;2.50;;
2175;SDS011;1094;49.902;10.876;2022-10-16T08:40:00;5.00;;;3.30;;
2175;SDS011;1094;49.902;10.876;2022-10-16T08:42:31;3.60;;;3.30;;
2175;SDS011;1094;49.902;10.876;2022-10-16T08:47:42;3.90;;;2.97;;
2175;SDS011;1094;49.902;10.876;2022-10-16T08:50:14;4.50;;;2.70;;
2175;SDS011;1094;49.902;10.876;2022-10-16T08:52:43;4.10;;;3.00;;
2175;SDS011;1094;49.902;10.876;2022-10-16T08:55:29;5.13;;;3.50;;
2175;SDS011;1094;49.902;10.876;2022-10-16T08:57:57;5.97;;;3.13;;
2175;SDS011;1094;49.902;10.876;2022-10-16T09:00:23;3.67;;;3.27;;
2175;SDS011;1094;49.902;10.876;2022-10-16T09:02:59;8.30;;;3.20;;
2175;SDS011;1094;49.902;10.876;2022-10-16T09:08:03;3.63;;;3.03;;
2175;SDS011;1094;49.902;10.876;2022-10-16T09:21:31;5.40;;;3.43;;
2175;SDS011;1094;49.902;10.876;2022-10-16T09:23:59;3.30;;;2.80;;
2175;SDS011;1094;49.902;10.876;2022-10-16T09:26:30;3.45;;;2.90;;
2175;SDS011;1094;49.902;10.876;2022-10-16T09:28:56;9.53;;;3.07;;
2175;SDS011;1094;49.902;10.876;2022-10-16T09:31:22;5.30;;;3.07;;
2175;SDS011;1094;49.902;10.876;2022-10-16T09:33:53;3.67;;;2.37;;
2175;SDS011;1094;49.902;10.876;2022-10-16T09:36:20;3.60;;;2.70;;
2175;SDS011;1094;49.902;10.876;2022-10-16T09:38:46;4.60;;;2.87;;
2175;SDS011;1094;49.902;10.876;2022-10-16T09:41:16;4.80;;;2.60;;
2175;SDS011;1094;49.902;10.876;2022-10-16T09:43:47;3.47;;;2.50;;
2175;SDS011;1094;49.902;10.876;2022-10-16T09:46:27;2.53;;;2.33;;
2175;SDS011;1094;49.902;10.876;2022-10-16T09:48:54;4.80;;;2.50;;
2175;SDS011;1094;49.902;10.876;2022-10-16T09:51:23;3.93;;;2.50;;
2175;SDS011;1094;49.902;10.876;2022-10-16T09:53:53;2.50;;;2.20;;
2175;SDS011;1094;49.902;10.876;2022-10-16T09:56:29;4.93;;;2.87;;
2175;SDS011;1094;49.902;10.876;2022-10-16T09:58:57;6.90;;;3.20;;
2175;SDS011;1094;49.902;10.876;2022-10-16T10:01:26;2.90;;;2.40;;
2175;SDS011;1094;49.902;10.876;2022-10-16T10:03:55;4.47;;;2.70;;
2175;SDS011;1094;49.902;10.876;2022-10-16T10:06:27;8.33;;;2.50;;
2175;SDS011;1094;49.902;10.876;2022-10-16T10:08:55;5.63;;;2.93;;
2175;SDS011;1094;49.902;10.876;2022-10-16T10:11:37;3.07;;;2.60;;
2175;SDS011;1094;49.902;10.876;2022-10-16T10:14:09;4.70;;;2.70;;
2175;SDS011;1094;49.902;10.876;2022-10-16T10:16:40;5.67;;;3.27;;
2175;SDS011;1094;49.902;10.876;2022-10-16T10:19:12;2.90;;;2.70;;
2175;SDS011;1094;49.902;10.876;2022-10-16T10:21:39;4.50;;;2.27;;
2175;SDS011;1094;49.902;10.876;2022-10-16T10:24:08;6.17;;;2.67;;
2175;SDS011;1094;49.902;10.876;2022-10-16T10:26:35;9.80;;;3.37;;
2175;SDS011;1094;49.902;10.876;2022-10-16T10:37:10;7.10;;;3.23;;
2175;SDS011;1094;49.902;10.876;2022-10-16T10:39:43;5.57;;;3.23;;
2175;SDS011;1094;49.902;10.876;2022-10-16T10:42:28;3.23;;;2.70;;
2175;SDS011;1094;49.902;10.876;2022-10-16T10:50:08;3.37;;;2.63;;
2175;SDS011;1094;49.902;10.876;2022-10-16T10:58:01;4.07;;;3.00;;
2175;SDS011;1094;49.902;10.876;2022-10-16T11:05:46;4.00;;;2.70;;
2175;SDS011;1094;49.902;10.876;2022-10-16T11:10:46;3.40;;;2.50;;
2175;SDS011;1094;49.902;10.876;2022-10-16T11:15:45;2.77;;;2.40;;
2175;SDS011;1094;49.902;10.876;2022-10-16T11:18:20;5.80;;;2.67;;
2175;SDS011;1094;49.902;10.876;2022-10-16T11:20:49;5.17;;;2.37;;
2175;SDS011;1094;49.902;10.876;2022-10-16T11:23:18;4.00;;;2.47;;
2175;SDS011;1094;49.902;10.876;2022-10-16T11:25:46;5.20;;;2.43;;
2175;SDS011;1094;49.902;10.876;2022-10-16T11:30:44;3.23;;;2.20;;
2175;SDS011;1094;49.902;10.876;2022-10-16T11:33:19;5.80;;;2.50;;
2175;SDS011;1094;49.902;10.876;2022-10-16T11:35:48;10.60;;;2.97;;
2175;SDS011;1094;49.902;10.876;2022-10-16T11:38:38;4.30;;;2.70;;
2175;SDS011;1094;49.902;10.876;2022-10-16T11:41:18;9.03;;;3.10;;
2175;SDS011;1094;49.902;10.876;2022-10-16T11:43:49;5.80;;;3.40;;
2175;SDS011;1094;49.902;10.876;2022-10-16T11:46:19;7.70;;;3.40;;
2175;SDS011;1094;49.902;10.876;2022-10-16T11:48:50;6.77;;;3.40;;
2175;SDS011;1094;49.902;10.876;2022-10-16T11:51:24;7.07;;;3.43;;
2175;SDS011;1094;49.902;10.876;2022-10-16T11:56:37;6.30;;;3.93;;
2175;SDS011;1094;49.902;10.876;2022-10-16T11:59:08;6.70;;;3.43;;
2175;SDS011;1094;49.902;10.876;2022-10-16T12:01:42;8.20;;;3.60;;
2175;SDS011;1094;49.902;10.876;2022-10-16T12:09:15;4.07;;;2.90;;
2175;SDS011;1094;49.902;10.876;2022-10-16T12:11:43;4.77;;;2.90;;
2175;SDS011;1094;49.902;10.876;2022-10-16T12:16:39;6.30;;;2.10;;
2175;SDS011;1094;49.902;10.876;2022-10-16T12:19:16;3.20;;;2.20;;
2175;SDS011;1094;49.902;10.876;2022-10-16T12:21:43;2.47;;;2.27;;
2175;SDS011;1094;49.902;10.876;2022-10-16T12:24:28;2.63;;;2.43;;
2175;SDS011;1094;49.902;10.876;2022-10-16T12:26:55;7.63;;;2.23;;
2175;SDS011;1094;49.902;10.876;2022-10-16T12:31:48;3.73;;;2.30;;
2175;SDS011;1094;49.902;10.876;2022-10-16T12:34:20;3.13;;;2.83;;
2175;SDS011;1094;49.902;10.876;2022-10-16T12:36:47;3.13;;;2.00;;
2175;SDS011;1094;49.902;10.876;2022-10-16T12:39:20;2.90;;;2.07;;
2175;SDS011;1094;49.902;10.876;2022-10-16T12:41:47;2.10;;;1.90;;
2175;SDS011;1094;49.902;10.876;2022-10-16T12:44:25;3.27;;;1.77;;
2175;SDS011;1094;49.902;10.876;2022-10-16T12:46:51;2.43;;;2.00;;
2175;SDS011;1094;49.902;10.876;2022-10-16T12:51:46;5.53;;;1.73;;
2175;SDS011;1094;49.902;10.876;2022-10-16T13:04:39;4.80;;;2.10;;
2175;SDS011;1094;49.902;10.876;2022-10-16T13:12:53;4.33;;;2.30;;
2175;SDS011;1094;49.902;10.876;2022-10-16T13:18:00;2.47;;;2.13;;
2175;SDS011;1094;49.902;10.876;2022-10-16T13:22:58;3.60;;;2.53;;
2175;SDS011;1094;49.902;10.876;2022-10-16T13:25:35;2.97;;;2.50;;
2175;SDS011;1094;49.902;10.876;2022-10-16T13:30:29;4.70;;;2.70;;
2175;SDS011;1094;49.902;10.876;2022-10-16T13:33:03;2.73;;;2.40;;
2175;SDS011;1094;49.902;10.876;2022-10-16T13:35:31;4.23;;;2.57;;
2175;SDS011;1094;49.902;10.876;2022-10-16T13:38:16;3.70;;;2.60;;
2175;SDS011;1094;49.902;10.876;2022-10-16T13:40:52;3.03;;;2.50;;
2175;SDS011;1094;49.902;10.876;2022-10-16T13:43:19;4.43;;;2.40;;
2175;SDS011;1094;49.902;10.876;2022-10-16T13:46:19;4.40;;;3.10;;
2175;SDS011;1094;49.902;10.876;2022-10-16T13:48:38;4.83;;;2.97;;
2175;SDS011;1094;49.902;10.876;2022-10-16T13:51:17;6.00;;;2.90;;
2175;SDS011;1094;49.902;10.876;2022-10-16T13:53:44;3.20;;;2.90;;
2175;SDS011;1094;49.902;10.876;2022-10-16T13:56:11;7.10;;;3.07;;
2175;SDS011;1094;49.902;10.876;2022-10-16T13:58:37;3.20;;;2.90;;
2175;SDS011;1094;49.902;10.876;2022-10-16T14:01:04;5.93;;;2.97;;
2175;SDS011;1094;49.902;10.876;2022-10-16T14:03:31;3.30;;;2.87;;
2175;SDS011;1094;49.902;10.876;2022-10-16T14:06:00;3.83;;;2.93;;
2175;SDS011;1094;49.902;10.876;2022-10-16T14:08:27;4.30;;;3.03;;
2175;SDS011;1094;49.902;10.876;2022-10-16T14:10:55;6.77;;;3.10;;
2175;SDS011;1094;49.902;10.876;2022-10-16T14:13:43;4.10;;;2.73;;
2175;SDS011;1094;49.902;10.876;2022-10-16T14:16:10;4.13;;;3.10;;
2175;SDS011;1094;49.902;10.876;2022-10-16T14:18:37;3.50;;;3.20;;
2175;SDS011;1094;49.902;10.876;2022-10-16T14:21:07;7.60;;;3.60;;
2175;SDS011;1094;49.902;10.876;2022-10-16T14:23:37;3.50;;;3.20;;
2175;SDS011;1094;49.902;10.876;2022-10-16T14:28:38;3.23;;;2.70;;
2175;SDS011;1094;49.902;10.876;2022-10-16T14:33:51;3.40;;;2.57;;
2175;SDS011;1094;49.902;10.876;2022-10-16T14:36:17;3.47;;;3.00;;
2175;SDS011;1094;49.902;10.876;2022-10-16T14:41:23;4.03;;;3.43;;
2175;SDS011;1094;49.902;10.876;2022-10-16T14:43:53;3.40;;;3.10;;
2175;SDS011;1094;49.902;10.876;2022-10-16T14:46:21;4.17;;;3.07;;
2175;SDS011;1094;49.902;10.876;2022-10-16T14:48:51;3.30;;;3.00;;
2175;SDS011;1094;49.902;10.876;2022-10-16T14:51:18;4.90;;;3.13;;
2175;SDS011;1094;49.902;10.876;2022-10-16T14:53:45;3.93;;;2.70;;
2175;SDS011;1094;49.902;10.876;2022-10-16T14:56:21;2.83;;;2.50;;
2175;SDS011;1094;49.902;10.876;2022-10-16T14:58:48;2.90;;;2.57;;
2175;SDS011;1094;49.902;10.876;2022-10-16T15:01:15;3.70;;;3.40;;
2175;SDS011;1094;49.902;10.876;2022-10-16T15:03:41;3.60;;;2.90;;
2175;SDS011;1094;49.902;10.876;2022-10-16T15:06:10;3.50;;;2.83;;
2175;SDS011;1094;49.902;10.876;2022-10-16T15:08:37;5.17;;;2.83;;
2175;SDS011;1094;49.902;10.876;2022-10-16T15:11:03;4.43;;;3.13;;
2175;SDS011;1094;49.902;10.876;2022-10-16T15:13:29;4.60;;;3.07;;
2175;SDS011;1094;49.902;10.876;2022-10-16T15:15:55;5.80;;;3.10;;
2175;SDS011;1094;49.902;10.876;2022-10-16T15:18:21;3.73;;;2.90;;
2175;SDS011;1094;49.902;10.876;2022-10-16T15:20:48;7.20;;;3.60;;
2175;SDS011;1094;49.902;10.876;2022-10-16T15:23:17;7.30;;;3.03;;
2175;SDS011;1094;49.902;10.876;2022-10-16T15:25:44;5.30;;;3.27;;
2175;SDS011;1094;49.902;10.876;2022-10-16T15:28:10;5.00;;;3.60;;
2175;SDS011;1094;49.902;10.876;2022-10-16T15:30:37;9.33;;;3.47;;
2175;SDS011;1094;49.902;10.876;2022-10-16T15:33:03;6.03;;;3.50;;
2175;SDS011;1094;49.902;10.876;2022-10-16T15:35:29;9.43;;;4.23;;
2175;SDS011;1094;49.902;10.876;2022-10-16T15:37:55;5.37;;;3.70;;
2175;SDS011;1094;49.902;10.876;2022-10-16T15:40:22;4.90;;;3.00;;
2175;SDS011;1094;49.902;10.876;2022-10-16T15:42:48;7.53;;;3.03;;
2175;SDS011;1094;49.902;10.876;2022-10-16T15:45:15;4.73;;;4.20;;
2175;SDS011;1094;49.902;10.876;2022-10-16T15:47:41;4.17;;;3.53;;
2175;SDS011;1094;49.902;10.876;2022-10-16T15:50:09;5.90;;;4.40;;
2175;SDS011;1094;49.902;10.876;2022-10-16T15:52:36;8.80;;;5.53;;
2175;SDS011;1094;49.902;10.876;2022-10-16T15:55:04;11.50;;;5.70;;
2175;SDS011;1094;49.902;10.876;2022-10-16T15:57:30;5.77;;;4.90;;
2175;SDS011;1094;49.902;10.876;2022-10-16T15:59:56;10.00;;;5.43;;
2175;SDS011;1094;49.902;10.876;2022-10-16T16:02:22;9.83;;;5.90;;
2175;SDS011;1094;49.902;10.876;2022-10-16T16:04:48;8.40;;;5.17;;
2175;SDS011;1094;49.902;10.876;2022-10-16T16:07:14;7.17;;;4.73;;
2175;SDS011;1094;49.902;10.876;2022-10-16T16:09:40;6.90;;;5.07;;
2175;SDS011;1094;49.902;10.876;2022-10-16T16:12:06;6.23;;;4.63;;
2175;SDS011;1094;49.902;10.876;2022-10-16T16:14:32;8.63;;;4.87;;
2175;SDS011;1094;49.902;10.876;2022-10-16T16:16:58;8.90;;;5.30;;
2175;SDS011;1094;49.902;10.876;2022-10-16T16:19:24;6.17;;;4.83;;
2175;SDS011;1094;49.902;10.876;2022-10-16T16:21:50;7.77;;;4.60;;
2175;SDS011;1094;49.902;10.876;2022-10-16T16:24:16;10.50;;;5.33;;
2175;SDS011;1094;49.902;10.876;2022-10-16T16:26:42;6.40;;;5.57;;
2175;SDS011;1094;49.902;10.876;2022-10-16T16:29:12;7.10;;;5.83;;
2175;SDS011;1094;49.902;10.876;2022-10-16T16:31:39;6.30;;;5.60;;
2175;SDS011;1094;49.902;10.876;2022-10-16T16:34:05;7.83;;;6.20;;
2175;SDS011;1094;49.902;10.876;2022-10-16T16:36:31;7.27;;;6.13;;
2175;SDS011;1094;49.902;10.876;2022-10-16T16:38:58;9.40;;;5.97;;
2175;SDS011;1094;49.902;10.876;2022-10-16T16:41:24;11.03;;;6.57;;
2175;SDS011;1094;49.902;10.876;2022-10-16T16:43:51;7.70;;;6.60;;
2175;SDS011;1094;49.902;10.876;2022-10-16T16:46:17;10.90;;;6.43;;
2175;SDS011;1094;49.902;10.876;2022-10-16T16:48:44;9.73;;;5.70;;
2175;SDS011;1094;49.902;10.876;2022-10-16T16:51:11;5.87;;;4.67;;